Time;durP1;ratioP1;P1;durP2;ratioP2;P2;SDS_P1;SDS_P2;PMS_P1;PMS_P2;Temp;Humidity;BMP_temperature;BMP_pressure;BME280_temperature;BME280_humidity;BME280_pressure;Samples;Min_cycle;Max_cycle;Signal;HPM_P1;HPM_P2
2022/03/05 00:01:14;;;;;;;15.25;9.98;;;;;;;1.52;69.68;101606.47;5044137;28;20016;-23
2022/03/05 00:03:40;;;;;;;16.33;10.32;;;;;;;1.49;69.40;101609.81;5044781;28;20497;-23
2022/03/05 00:06:05;;;;;;;16.45;9.30;;;;;;;1.48;69.81;101604.56;5046345;28;20021;-23
2022/03/05 00:08:31;;;;;;;20.30;10.18;;;;;;;1.45;69.59;101604.41;5048140;28;20037;-23
2022/03/05 00:10:56;;;;;;;15.55;10.02;;;;;;;1.44;69.83;101613.03;5047850;28;20016;-23
2022/03/05 00:13:21;;;;;;;17.05;10.10;;;;;;;1.41;69.54;101614.66;5047905;28;20507;-23
2022/03/05 00:15:47;;;;;;;15.23;9.25;;;;;;;1.40;69.71;101612.03;5045746;28;20028;-23
2022/03/05 00:18:12;;;;;;;14.38;9.63;;;;;;;1.38;69.71;101613.66;5027636;28;20504;-23
2022/03/05 00:20:38;;;;;;;15.68;9.95;;;;;;;1.35;69.40;101614.44;5044709;28;20510;-23
2022/03/05 00:23:03;;;;;;;13.55;9.20;;;;;;;1.31;69.52;101606.41;5044478;28;20029;-23
2022/03/05 00:25:29;;;;;;;15.80;10.25;;;;;;;1.28;69.30;101607.16;5046894;28;20036;-23
2022/03/05 00:27:54;;;;;;;15.20;9.63;;;;;;;1.27;69.74;101613.19;5029124;28;20028;-23
2022/03/05 00:30:19;;;;;;;14.60;9.82;;;;;;;1.24;69.49;101611.31;5047976;28;20681;-24
2022/03/05 00:32:46;;;;;;;16.60;10.00;;;;;;;1.23;69.74;101619.09;5049719;28;20032;-23
2022/03/05 00:35:12;;;;;;;15.32;9.38;;;;;;;1.21;69.53;101623.31;5048942;28;20072;-24
2022/03/05 00:37:37;;;;;;;14.98;9.55;;;;;;;1.17;69.68;101613.59;5046348;28;20048;-22
2022/03/05 00:40:03;;;;;;;15.40;9.60;;;;;;;1.15;69.50;101614.44;5017765;28;20028;-24
2022/03/05 00:42:29;;;;;;;13.75;9.30;;;;;;;1.11;69.51;101617.72;5047190;28;20029;-23
2022/03/05 00:44:54;;;;;;;12.02;8.82;;;;;;;1.09;69.71;101621.94;5048508;28;20082;-23
2022/03/05 00:47:20;;;;;;;15.88;8.80;;;;;;;1.08;69.87;101620.16;5047716;28;20033;-23
2022/03/05 00:49:45;;;;;;;15.25;9.43;;;;;;;1.05;69.79;101633.03;5043692;28;20031;-23
2022/03/05 00:52:11;;;;;;;13.55;9.05;;;;;;;1.02;69.75;101632.88;5047403;28;20562;-23
2022/03/05 00:54:36;;;;;;;17.48;9.45;;;;;;;1.02;69.84;101640.66;5047779;28;20534;-23
2022/03/05 00:57:02;;;;;;;15.30;9.68;;;;;;;0.98;69.93;101636.16;5047221;28;20918;-23
2022/03/05 00:59:28;;;;;;;12.20;8.32;;;;;;;0.93;69.86;101632.47;5048070;28;20025;-23
2022/03/05 01:01:54;;;;;;;15.75;9.10;;;;;;;0.92;69.70;101639.34;5045397;28;20068;-23
2022/03/05 01:04:19;;;;;;;18.73;10.32;;;;;;;0.89;69.45;101637.50;5048445;28;20502;-24
2022/03/05 01:06:45;;;;;;;16.02;9.60;;;;;;;0.86;69.60;101642.56;5048381;28;20028;-23
2022/03/05 01:09:10;;;;;;;12.35;7.63;;;;;;;0.84;69.86;101645.91;5047177;28;20056;-24
2022/03/05 01:11:37;;;;;;;12.13;9.13;;;;;;;0.80;69.96;101639.66;5047838;28;20021;-23
2022/03/05 01:14:02;;;;;;;14.70;9.30;;;;;;;0.78;69.55;101636.13;5048091;28;20087;-23
2022/03/05 01:16:28;;;;;;;12.73;8.93;;;;;;;0.73;69.89;101630.69;5049512;28;20524;-24
2022/03/05 01:18:53;;;;;;;13.40;8.65;;;;;;;0.71;69.80;101628.84;5049413;28;20039;-24
2022/03/05 01:21:19;;;;;;;11.77;8.23;;;;;;;0.68;69.82;101627.00;5046808;28;20036;-24
2022/03/05 01:23:44;;;;;;;13.93;9.20;;;;;;;0.63;69.77;101631.06;5045643;28;20020;-23
2022/03/05 01:26:09;;;;;;;15.40;9.38;;;;;;;0.61;69.94;101633.63;5048520;28;20017;-24
2022/03/05 01:28:35;;;;;;;13.82;8.82;;;;;;;0.59;69.62;101630.06;5051218;28;20078;-23
2022/03/05 01:31:00;;;;;;;10.88;8.05;;;;;;;0.55;69.59;101628.13;5052549;28;20475;-24
2022/03/05 01:33:26;;;;;;;13.93;8.40;;;;;;;0.51;69.20;101632.28;5052668;28;20021;-23
2022/03/05 01:35:51;;;;;;;11.95;8.50;;;;;;;0.47;69.52;101624.28;5051873;28;20025;-24
2022/03/05 01:38:17;;;;;;;12.05;8.63;;;;;;;0.44;69.27;101635.44;5051624;28;20158;-23
2022/03/05 01:40:43;;;;;;;13.15;8.45;;;;;;;0.43;69.64;101632.75;5049556;28;20025;-24
2022/03/05 01:43:10;;;;;;;12.95;8.13;;;;;;;0.38;69.53;101623.03;5019145;28;20029;-23
2022/03/05 01:45:36;;;;;;;11.63;7.53;;;;;;;0.34;69.58;101628.88;5033745;28;20029;-23
2022/03/05 01:48:02;;;;;;;12.20;8.25;;;;;;;0.31;69.07;101623.56;5051936;28;20050;-26
2022/03/05 01:50:28;;;;;;;10.63;7.55;;;;;;;0.29;69.61;101619.09;5032207;28;20114;-26
2022/03/05 01:52:54;;;;;;;14.10;8.23;;;;;;;0.26;69.22;101627.63;5050645;28;20071;-25
2022/03/05 01:55:19;;;;;;;11.98;8.70;;;;;;;0.21;69.13;101616.13;5033285;28;20028;-26
2022/03/05 01:57:44;;;;;;;12.88;8.07;;;;;;;0.19;69.54;101613.47;5031976;28;20103;-25
2022/03/05 02:00:12;;;;;;;11.95;8.13;;;;;;;0.15;69.07;101615.81;5032217;28;20394;-26
2022/03/05 02:02:37;;;;;;;10.25;6.65;;;;;;;0.12;69.61;101612.28;5033917;28;20017;-25
2022/03/05 02:05:04;;;;;;;11.63;7.50;;;;;;;0.06;69.45;101605.88;5031751;28;20035;-26
2022/03/05 02:07:30;;;;;;;11.50;7.18;;;;;;;0.05;69.64;101615.38;5017216;28;20411;-26
2022/03/05 02:09:55;;;;;;;12.88;8.32;;;;;;;0.01;69.63;101623.81;5051420;28;20039;-25
2022/03/05 02:12:31;;;;;;;9.90;7.43;;;;;;;-0.01;69.11;101625.44;5050785;28;20029;-25
2022/03/05 02:14:58;;;;;;;11.45;7.47;;;;;;;-0.06;69.10;101617.47;5049812;28;20025;-26
2022/03/05 02:17:24;;;;;;;12.02;7.10;;;;;;;-0.08;69.59;101624.25;5053267;28;20028;-25
2022/03/05 02:19:50;;;;;;;9.80;7.28;;;;;;;-0.13;68.88;101624.00;5028290;28;20075;-25
2022/03/05 02:22:15;;;;;;;12.02;7.15;;;;;;;-0.15;68.88;101629.94;5051654;28;20044;-25
2022/03/05 02:24:40;;;;;;;11.77;7.93;;;;;;;-0.18;68.96;101629.78;5050759;28;20421;-25
2022/03/05 02:27:07;;;;;;;11.93;7.78;;;;;;;-0.23;69.23;101619.19;5052197;28;20067;-25
2022/03/05 02:29:36;;;;;;;10.63;7.63;;;;;;;-0.26;68.98;101619.03;5049650;28;20032;-26
2022/03/05 02:32:02;;;;;;;9.25;6.88;;;;;;;-0.30;69.58;101625.75;5050648;28;20035;-26
2022/03/05 02:34:29;;;;;;;9.73;6.90;;;;;;;-0.32;68.91;101621.31;5049738;28;20021;-26
2022/03/05 02:36:54;;;;;;;9.52;6.40;;;;;;;-0.35;68.83;101624.63;5048712;28;20028;-26
2022/03/05 02:39:23;;;;;;;8.95;7.15;;;;;;;-0.40;69.47;101619.22;5049328;28;20025;-26
2022/03/05 02:41:49;;;;;;;10.55;6.95;;;;;;;-0.45;68.80;101617.19;5032935;28;20028;-26
2022/03/05 02:44:14;;;;;;;12.00;7.53;;;;;;;-0.47;69.49;101614.53;5050028;28;20040;-25
2022/03/05 02:46:40;;;;;;;8.18;6.43;;;;;;;-0.49;68.97;101610.06;5050146;28;20039;-26
2022/03/05 02:49:05;;;;;;;9.75;6.15;;;;;;;-0.53;69.11;101606.44;5050602;28;20068;-26
2022/03/05 02:51:30;;;;;;;10.65;6.82;;;;;;;-0.55;69.19;101610.66;5049557;28;20032;-25
2022/03/05 02:53:56;;;;;;;9.38;6.30;;;;;;;-0.59;69.04;101609.63;5050520;28;20048;-25
2022/03/05 02:56:24;;;;;;;7.75;6.25;;;;;;;-0.63;69.37;101612.84;5049263;28;20402;-25
2022/03/05 02:58:49;;;;;;;9.20;6.40;;;;;;;-0.66;69.27;101607.50;5050499;28;20052;-25
2022/03/05 03:01:15;;;;;;;12.15;7.60;;;;;;;-0.70;68.95;101608.16;5051669;28;20021;-25
2022/03/05 03:03:41;;;;;;;8.30;6.20;;;;;;;-0.73;69.35;101603.69;5050000;28;20021;-23
2022/03/05 03:06:06;;;;;;;9.63;6.40;;;;;;;-0.76;68.96;101600.97;5049392;28;20032;-24
2022/03/05 03:08:32;;;;;;;9.10;6.45;;;;;;;-0.79;69.71;101598.22;5048031;28;20031;-23
2022/03/05 03:10:59;;;;;;;11.35;6.78;;;;;;;-0.84;69.28;101592.78;5048980;28;20036;-25
2022/03/05 03:13:24;;;;;;;8.95;6.28;;;;;;;-0.84;69.00;101604.84;5030918;28;20033;-25
2022/03/05 03:15:49;;;;;;;9.15;6.63;;;;;;;-0.89;69.52;101599.41;5049928;28;20040;-25
2022/03/05 03:18:18;;;;;;;9.45;6.70;;;;;;;-0.92;69.43;101599.25;5031084;28;20021;-25
2022/03/05 03:20:44;;;;;;;8.90;6.28;;;;;;;-0.94;68.93;101606.94;5029429;28;20033;-25
2022/03/05 03:23:10;;;;;;;7.97;5.93;;;;;;;-0.97;69.53;101611.94;5050046;28;20455;-25
2022/03/05 03:25:40;;;;;;;8.82;6.38;;;;;;;-1.01;69.38;101607.41;5049896;28;20029;-25
2022/03/05 03:28:07;;;;;;;8.40;6.03;;;;;;;-1.03;69.14;101601.28;5033494;28;20032;-24
2022/03/05 03:30:33;;;;;;;9.80;6.25;;;;;;;-1.04;69.79;101612.44;5030812;28;20079;-25
2022/03/05 03:32:58;;;;;;;9.32;5.93;;;;;;;-1.08;68.96;101607.91;5032029;28;20032;-25
2022/03/05 03:35:23;;;;;;;7.38;5.70;;;;;;;-1.10;69.67;101612.13;5029516;28;20082;-24
2022/03/05 03:37:49;;;;;;;9.15;6.38;;;;;;;-1.12;69.75;101603.38;5028832;28;20043;-24
2022/03/05 03:40:16;;;;;;;9.98;5.45;;;;;;;-1.17;69.69;101606.59;5047297;28;20112;-24
2022/03/05 03:42:42;;;;;;;9.30;5.80;;;;;;;-1.18;69.34;101604.81;5030903;28;20029;-24
2022/03/05 03:45:09;;;;;;;7.18;6.45;;;;;;;-1.21;69.69;101602.06;5047156;28;20024;-24
2022/03/05 03:47:34;;;;;;;9.30;6.38;;;;;;;-1.23;69.20;101607.97;5046984;28;20920;-25
2022/03/05 03:50:00;;;;;;;8.90;6.40;;;;;;;-1.25;69.41;101607.88;5030939;28;20532;-24
2022/03/05 03:52:26;;;;;;;7.85;5.72;;;;;;;-1.29;69.67;101609.41;5048369;28;20037;-24
2022/03/05 03:54:51;;;;;;;6.70;5.80;;;;;;;-1.31;69.38;101615.31;5029562;28;20069;-23
2022/03/05 03:57:17;;;;;;;7.03;5.90;;;;;;;-1.33;69.54;101619.53;5044799;28;20509;-24
2022/03/05 03:59:43;;;;;;;7.65;5.68;;;;;;;-1.34;69.58;101616.03;5045871;28;20033;-24
2022/03/05 04:02:08;;;;;;;7.90;5.28;;;;;;;-1.37;69.61;101615.00;5047512;28;20021;-23
2022/03/05 04:04:34;;;;;;;9.30;5.88;;;;;;;-1.39;69.29;101617.50;5047119;28;20105;-23
2022/03/05 04:09:43;;;;;;;7.45;5.50;;;;;;;-1.43;69.22;101620.72;5048759;28;20098;-23
2022/03/05 04:12:08;;;;;;;8.25;5.32;;;;;;;-1.45;69.48;101623.22;5011353;28;20951;-24
2022/03/05 04:14:35;;;;;;;7.90;5.72;;;;;;;-1.48;69.78;101624.72;5046743;28;20167;-24
2022/03/05 04:17:00;;;;;;;10.60;5.90;;;;;;;-1.49;69.15;101616.09;5047863;28;20032;-24
2022/03/05 04:19:26;;;;;;;9.30;5.47;;;;;;;-1.50;69.59;101618.59;5046957;28;20090;-23
2022/03/05 04:21:51;;;;;;;8.30;6.15;;;;;;;-1.52;69.33;101621.09;5046323;28;20021;-23
2022/03/05 04:24:17;;;;;;;8.10;6.32;;;;;;;-1.53;69.15;101626.19;5043730;28;20037;-23
2022/03/05 04:26:42;;;;;;;9.18;6.07;;;;;;;-1.56;69.84;101616.56;5046443;28;20467;-24
2022/03/05 04:29:07;;;;;;;9.93;6.28;;;;;;;-1.57;69.42;101619.94;5047151;28;20115;-24
2022/03/05 04:31:33;;;;;;;7.82;5.60;;;;;;;-1.60;69.39;101623.22;5046804;28;20040;-24
2022/03/05 04:33:58;;;;;;;8.57;6.18;;;;;;;-1.61;69.69;101617.97;5046308;28;20402;-24
2022/03/05 04:36:24;;;;;;;8.73;5.93;;;;;;;-1.64;69.44;101616.09;5046146;28;20395;-23
2022/03/05 04:38:49;;;;;;;9.70;6.28;;;;;;;-1.64;69.32;101620.41;5047714;28;20045;-24
2022/03/05 04:41:14;;;;;;;10.73;6.90;;;;;;;-1.65;69.63;101629.84;5030394;28;20013;-23
2022/03/05 04:43:40;;;;;;;8.88;6.28;;;;;;;-1.68;69.38;101635.75;5053168;28;20048;-24
2022/03/05 04:46:05;;;;;;;7.78;6.28;;;;;;;-1.70;69.39;101632.19;5051454;28;20398;-24
2022/03/05 04:48:31;;;;;;;9.18;5.75;;;;;;;-1.71;69.57;101635.56;5054198;28;20040;-23
2022/03/05 04:50:56;;;;;;;7.55;6.15;;;;;;;-1.72;69.39;101641.56;5034242;28;20389;-23
2022/03/05 04:53:21;;;;;;;8.02;6.22;;;;;;;-1.75;69.44;101641.38;5047730;28;20029;-24
2022/03/05 04:55:48;;;;;;;9.50;6.57;;;;;;;-1.76;69.08;101639.59;5047251;28;20024;-24
2022/03/05 04:58:13;;;;;;;8.45;6.50;;;;;;;-1.79;69.67;101652.34;5048740;28;20311;-23
2022/03/05 05:00:39;;;;;;;8.02;5.40;;;;;;;-1.80;69.06;101655.75;5047503;28;20032;-23
2022/03/05 05:03:04;;;;;;;6.80;6.10;;;;;;;-1.83;69.15;101651.28;5032199;28;20033;-23
2022/03/05 05:05:29;;;;;;;8.85;6.57;;;;;;;-1.84;69.31;101658.94;5050124;28;20021;-24
2022/03/05 05:07:55;;;;;;;8.55;5.93;;;;;;;-1.85;69.60;101658.06;5052368;28;20118;-23
2022/03/05 05:10:21;;;;;;;8.15;6.18;;;;;;;-1.87;69.71;101658.78;5051068;28;20024;-24
2022/03/05 05:12:46;;;;;;;9.13;6.20;;;;;;;-1.88;69.89;101662.16;5053988;28;20033;-24
2022/03/05 05:15:12;;;;;;;8.93;6.80;;;;;;;-1.91;69.53;101660.28;5050280;28;20056;-24
2022/03/05 05:17:37;;;;;;;9.63;6.35;;;;;;;-1.92;69.62;101655.03;5052586;28;20036;-23
2022/03/05 05:20:04;;;;;;;10.82;6.15;;;;;;;-1.93;69.48;101659.31;5051769;28;20029;-24
2022/03/05 05:22:31;;;;;;;9.35;6.22;;;;;;;-1.96;69.72;101654.84;5049908;28;20550;-23
2022/03/05 05:24:56;;;;;;;6.85;5.75;;;;;;;-1.96;69.53;101660.00;5052466;28;20024;-23
2022/03/05 05:27:22;;;;;;;7.30;5.88;;;;;;;-1.98;70.22;101655.56;5037125;28;20021;-23
2022/03/05 05:29:47;;;;;;;9.88;6.60;;;;;;;-1.97;69.77;101666.00;5051548;28;20074;-24
2022/03/05 05:32:12;;;;;;;8.27;6.07;;;;;;;-1.98;69.88;101666.81;5033287;28;20029;-23
2022/03/05 05:34:39;;;;;;;8.98;6.57;;;;;;;-1.98;69.71;101669.41;5048867;28;20028;-23
2022/03/05 05:37:04;;;;;;;7.18;5.80;;;;;;;-1.98;69.77;101671.06;5048884;28;20028;-24
2022/03/05 05:39:30;;;;;;;8.95;6.13;;;;;;;-1.99;69.80;101670.19;5033236;28;20036;-24
2022/03/05 05:41:55;;;;;;;7.80;6.15;;;;;;;-2.00;70.20;101665.81;5045647;28;20558;-23
2022/03/05 05:44:20;;;;;;;9.90;6.82;;;;;;;-2.00;70.19;101664.94;5051454;28;20081;-23
2022/03/05 05:46:46;;;;;;;9.32;6.22;;;;;;;-2.00;70.25;101663.22;5053402;28;20033;-24
2022/03/05 05:49:11;;;;;;;9.88;6.78;;;;;;;-2.00;69.71;101665.81;5049584;28;20020;-23
2022/03/05 05:51:37;;;;;;;10.25;6.30;;;;;;;-1.98;69.88;101671.06;5050343;28;20368;-23
2022/03/05 05:54:03;;;;;;;11.02;6.63;;;;;;;-1.99;69.75;101670.19;5049925;28;20074;-23
2022/03/05 05:56:28;;;;;;;9.20;6.97;;;;;;;-1.99;70.17;101664.13;5051444;28;20044;-23
2022/03/05 05:58:54;;;;;;;7.43;6.00;;;;;;;-1.99;70.07;101669.31;5052791;28;20396;-23
2022/03/05 06:01:19;;;;;;;9.13;6.57;;;;;;;-1.97;70.23;101671.16;5049465;28;20024;-23
2022/03/05 06:03:45;;;;;;;8.80;6.68;;;;;;;-1.98;70.14;101671.97;5050354;28;20470;-24
2022/03/05 06:06:11;;;;;;;7.45;6.05;;;;;;;-1.98;70.35;101671.06;5033286;28;20543;-24
2022/03/05 06:08:37;;;;;;;9.27;6.70;;;;;;;-1.97;69.97;101665.13;5032538;28;20020;-23
2022/03/05 06:11:03;;;;;;;9.38;6.07;;;;;;;-1.97;69.89;101668.56;5049122;28;20387;-24
2022/03/05 06:13:28;;;;;;;8.48;6.43;;;;;;;-1.97;70.59;101672.88;5031865;28;20112;-23
2022/03/05 06:15:53;;;;;;;8.70;5.78;;;;;;;-1.96;70.41;101672.94;5050951;28;20039;-24
2022/03/05 06:18:19;;;;;;;13.20;7.25;;;;;;;-1.94;69.87;101675.63;5051337;28;20029;-24
2022/03/05 06:20:44;;;;;;;8.13;5.88;;;;;;;-1.92;70.46;101675.72;5032465;28;20040;-24
2022/03/05 06:23:10;;;;;;;9.20;6.15;;;;;;;-1.94;70.04;101675.63;5031720;28;20223;-24
2022/03/05 06:25:35;;;;;;;8.55;5.63;;;;;;;-1.93;70.36;101672.25;5050896;28;20487;-24
2022/03/05 06:28:01;;;;;;;8.65;6.45;;;;;;;-1.91;70.04;101677.53;5050564;28;20025;-24
2022/03/05 06:30:26;;;;;;;8.65;6.32;;;;;;;-1.90;70.00;101677.56;5049285;28;20024;-24
2022/03/05 06:32:51;;;;;;;7.55;5.28;;;;;;;-1.89;69.96;101673.31;5049453;28;20998;-23
2022/03/05 06:35:17;;;;;;;6.78;5.65;;;;;;;-1.87;69.83;101682.06;5048678;28;20017;-24
2022/03/05 06:37:42;;;;;;;6.88;5.18;;;;;;;-1.87;70.46;101674.31;5047164;28;20032;-24
2022/03/05 06:40:11;;;;;;;10.60;6.93;;;;;;;-1.87;70.22;101675.19;5047865;28;20037;-23
2022/03/05 06:42:40;;;;;;;9.38;6.03;;;;;;;-1.85;70.60;101677.84;5050650;28;20038;-23
2022/03/05 06:45:08;;;;;;;8.35;6.55;;;;;;;-1.85;70.37;101683.94;5051023;28;20033;-23
2022/03/05 06:47:34;;;;;;;7.63;5.90;;;;;;;-1.83;70.38;101687.47;5049991;28;20031;-24
2022/03/05 06:49:59;;;;;;;9.50;5.95;;;;;;;-1.83;70.01;101678.84;5049295;28;20434;-23
2022/03/05 06:52:25;;;;;;;7.68;6.03;;;;;;;-1.81;70.71;101685.00;5050785;28;20091;-24
2022/03/05 06:54:50;;;;;;;8.48;5.85;;;;;;;-1.80;70.03;101691.97;5049899;28;20028;-24
2022/03/05 06:57:15;;;;;;;9.07;6.40;;;;;;;-1.80;70.05;101691.97;5049938;28;20056;-23
2022/03/05 06:59:41;;;;;;;9.40;6.90;;;;;;;-1.77;70.31;101705.06;5032942;28;20060;-24
2022/03/05 07:02:07;;;;;;;7.57;5.90;;;;;;;-1.76;70.05;101704.28;5052285;28;20021;-23
2022/03/05 07:04:33;;;;;;;8.77;6.53;;;;;;;-1.75;70.50;101694.78;5052252;28;20033;-24
2022/03/05 07:06:58;;;;;;;7.30;5.57;;;;;;;-1.73;70.01;101699.25;5053660;28;20025;-24
2022/03/05 07:09:23;;;;;;;9.52;6.43;;;;;;;-1.70;70.43;101703.75;5053653;28;20632;-23
2022/03/05 07:11:49;;;;;;;11.45;6.97;;;;;;;-1.69;70.49;101700.34;5056268;28;20033;-23
2022/03/05 07:14:14;;;;;;;9.43;6.20;;;;;;;-1.68;70.38;101707.28;5049126;28;20071;-23
2022/03/05 07:16:39;;;;;;;10.25;6.35;;;;;;;-1.66;69.84;101704.78;5045030;28;20516;-24
2022/03/05 07:19:05;;;;;;;8.82;6.10;;;;;;;-1.64;69.96;101709.25;5050849;28;20032;-24
2022/03/05 07:21:30;;;;;;;8.25;6.32;;;;;;;-1.62;70.63;101711.91;5047604;28;20091;-23
2022/03/05 07:23:58;;;;;;;7.90;5.85;;;;;;;-1.60;70.04;101720.69;5047065;28;20025;-24
2022/03/05 07:26:24;;;;;;;8.98;6.20;;;;;;;-1.60;70.48;101708.63;5049484;28;20486;-24
2022/03/05 07:28:50;;;;;;;11.10;6.22;;;;;;;-1.56;70.25;101720.06;5050274;28;20045;-24
2022/03/05 07:31:15;;;;;;;11.00;6.35;;;;;;;-1.55;70.21;101717.56;5047211;28;20033;-24
2022/03/05 07:33:41;;;;;;;7.28;5.93;;;;;;;-1.50;70.24;101722.09;5050877;28;20116;-23
2022/03/05 07:36:06;;;;;;;7.28;5.75;;;;;;;-1.48;70.55;101723.97;5050439;28;20071;-23
2022/03/05 07:38:32;;;;;;;7.20;5.95;;;;;;;-1.46;70.64;101721.47;5030755;28;20056;-23
2022/03/05 07:40:58;;;;;;;8.98;6.20;;;;;;;-1.42;70.88;101721.75;5049034;28;20039;-25
2022/03/05 07:43:23;;;;;;;8.57;6.07;;;;;;;-1.38;70.65;101724.47;5049492;28;20549;-26
2022/03/05 07:45:49;;;;;;;8.32;6.03;;;;;;;-1.35;70.63;101714.31;5048416;28;20456;-25
2022/03/05 07:48:14;;;;;;;7.47;5.93;;;;;;;-1.30;70.94;101723.25;5031464;28;20098;-26
2022/03/05 07:50:40;;;;;;;7.25;5.57;;;;;;;-1.24;70.62;101722.69;5048057;28;20041;-25
2022/03/05 07:53:06;;;;;;;7.68;5.80;;;;;;;-1.20;70.54;101724.66;5047311;28;20025;-25
2022/03/05 07:55:32;;;;;;;6.97;5.32;;;;;;;-1.14;70.97;101719.78;5049276;28;20372;-26
2022/03/05 07:57:57;;;;;;;7.38;5.75;;;;;;;-1.07;71.12;101721.06;5031980;28;20419;-26
2022/03/05 08:00:23;;;;;;;6.63;5.03;;;;;;;-1.02;70.82;101722.19;5033809;28;20024;-26
2022/03/05 08:02:49;;;;;;;7.45;5.45;;;;;;;-0.97;70.95;101720.72;5018006;28;20028;-26
2022/03/05 08:05:14;;;;;;;7.90;5.80;;;;;;;-0.93;70.77;101722.69;5036243;28;20032;-25
2022/03/05 08:07:40;;;;;;;6.57;5.18;;;;;;;-0.88;70.63;101719.44;5052607;28;20044;-25
2022/03/05 08:10:07;;;;;;;7.05;5.38;;;;;;;-0.81;70.21;101718.97;5035403;28;20032;-26
2022/03/05 08:12:34;;;;;;;9.13;5.80;;;;;;;-0.73;70.86;101719.41;5049948;28;20029;-24
2022/03/05 08:14:59;;;;;;;8.05;5.45;;;;;;;-0.67;70.86;101717.13;5047477;28;20033;-23
2022/03/05 08:17:25;;;;;;;8.05;5.45;;;;;;;-0.60;70.57;101718.38;5045486;28;20506;-24
2022/03/05 08:19:51;;;;;;;7.97;5.68;;;;;;;-0.54;70.42;101718.69;5047513;28;20029;-23
2022/03/05 08:22:16;;;;;;;7.18;4.72;;;;;;;-0.45;70.04;101721.78;5047148;28;20028;-24
2022/03/05 08:24:41;;;;;;;8.52;5.93;;;;;;;-0.38;70.79;101733.34;5045987;28;20025;-24
2022/03/05 08:27:07;;;;;;;7.68;5.45;;;;;;;-0.29;69.99;101727.78;5047179;28;20609;-24
2022/03/05 08:29:32;;;;;;;8.55;5.45;;;;;;;-0.22;70.40;101729.88;5042390;28;20025;-24
2022/03/05 08:31:57;;;;;;;8.60;5.93;;;;;;;-0.14;69.70;101728.56;5048027;28;20033;-24
2022/03/05 08:34:23;;;;;;;6.43;5.03;;;;;;;-0.06;69.62;101726.38;5047528;28;20050;-23
2022/03/05 08:36:48;;;;;;;7.97;6.03;;;;;;;0.03;70.06;101728.53;5046937;28;20483;-24
2022/03/05 08:39:14;;;;;;;8.13;6.07;;;;;;;0.11;69.62;101735.00;5029535;28;20071;-23
2022/03/05 08:41:39;;;;;;;7.07;6.20;;;;;;;0.20;70.11;101736.31;5047501;28;20024;-24
2022/03/05 08:44:05;;;;;;;8.07;6.32;;;;;;;0.28;69.92;101732.41;5046670;28;20398;-24
2022/03/05 08:46:30;;;;;;;8.23;5.45;;;;;;;0.36;69.72;101736.25;5046117;28;20102;-23
2022/03/05 08:48:55;;;;;;;7.38;5.80;;;;;;;0.43;69.74;101731.38;5048553;28;20060;-23
2022/03/05 08:51:21;;;;;;;8.13;5.40;;;;;;;0.54;69.48;101738.00;5047726;28;20035;-24
2022/03/05 08:53:46;;;;;;;7.18;5.32;;;;;;;0.62;69.10;101734.06;5051240;28;20029;-23
2022/03/05 08:56:11;;;;;;;6.60;4.97;;;;;;;0.73;68.67;101733.72;5029871;28;20453;-23
2022/03/05 08:58:37;;;;;;;6.45;5.53;;;;;;;0.83;68.90;101733.31;5027836;28;20029;-23
2022/03/05 09:01:02;;;;;;;7.70;5.75;;;;;;;0.93;69.07;101731.19;5045767;28;20040;-23
2022/03/05 09:03:28;;;;;;;6.95;5.85;;;;;;;1.04;69.15;101722.19;5049718;28;20040;-23
2022/03/05 09:05:54;;;;;;;7.78;5.72;;;;;;;1.11;68.86;101718.16;5048171;28;20044;-23
2022/03/05 09:08:19;;;;;;;8.73;5.82;;;;;;;1.23;68.95;101723.06;5045868;28;20528;-23
2022/03/05 09:10:45;;;;;;;6.68;5.45;;;;;;;1.34;69.00;101726.13;5044379;28;20025;-23
2022/03/05 09:13:11;;;;;;;8.77;5.72;;;;;;;1.43;68.69;101715.28;5045570;28;20494;-23
2022/03/05 09:15:37;;;;;;;6.45;5.65;;;;;;;1.53;68.63;101717.44;5026172;28;20060;-23
2022/03/05 09:18:02;;;;;;;6.55;5.10;;;;;;;1.63;68.26;101717.03;5048039;28;20017;-24
2022/03/05 09:20:28;;;;;;;5.93;4.88;;;;;;;1.73;68.22;101720.06;5046850;28;20467;-24
2022/03/05 09:22:53;;;;;;;7.18;5.53;;;;;;;1.83;67.87;101716.16;5047909;28;20112;-23
2022/03/05 09:25:19;;;;;;;5.95;5.30;;;;;;;1.95;68.03;101715.78;5043379;28;20548;-23
2022/03/05 09:27:45;;;;;;;6.97;5.55;;;;;;;2.05;67.82;101721.47;5045419;28;20032;-24
2022/03/05 09:30:11;;;;;;;7.97;5.57;;;;;;;2.16;67.78;101716.72;5045683;28;20025;-23
2022/03/05 09:32:36;;;;;;;6.68;5.57;;;;;;;2.26;67.54;101711.88;5046157;28;20555;-23
2022/03/05 09:35:03;;;;;;;8.50;5.65;;;;;;;2.39;67.52;101713.28;5046355;28;20028;-24
2022/03/05 09:37:30;;;;;;;5.72;5.18;;;;;;;2.49;67.68;101704.13;5027591;28;20090;-23
2022/03/05 09:39:57;;;;;;;6.28;5.07;;;;;;;2.56;67.35;101707.06;5048653;28;20070;-23
2022/03/05 09:42:22;;;;;;;5.80;4.82;;;;;;;2.70;67.58;101704.09;5046899;28;20028;-23
2022/03/05 09:44:48;;;;;;;8.57;5.10;;;;;;;2.80;67.27;101702.78;5049337;28;20040;-23
2022/03/05 09:47:15;;;;;;;8.13;5.57;;;;;;;2.91;67.50;101706.72;5048031;28;20034;-23
2022/03/05 09:49:40;;;;;;;6.70;4.90;;;;;;;3.00;66.83;101703.53;5049928;28;20033;-24
2022/03/05 09:52:07;;;;;;;6.63;4.60;;;;;;;3.12;66.72;101703.13;5050728;28;20107;-22
2022/03/05 09:54:32;;;;;;;6.78;5.75;;;;;;;3.23;66.71;101695.72;5029937;28;20021;-23
2022/03/05 09:56:58;;;;;;;6.70;4.90;;;;;;;3.33;66.59;101697.84;5049569;28;20032;-24
2022/03/05 09:59:24;;;;;;;6.40;5.10;;;;;;;3.40;66.59;101688.53;5049616;28;20037;-23
2022/03/05 10:01:50;;;;;;;5.95;5.35;;;;;;;3.50;66.78;101694.97;5049305;28;20401;-24
2022/03/05 10:04:23;;;;;;;6.78;5.45;;;;;;;3.65;66.40;101699.88;5051198;28;20119;-24
2022/03/05 10:07:10;;;;;;;5.57;4.93;;;;;;;3.77;66.15;101703.75;5051381;28;20025;-23
2022/03/05 10:09:36;;;;;;;7.22;5.00;;;;;;;3.87;66.19;101703.22;5053079;28;20029;-24
2022/03/05 10:12:05;;;;;;;6.22;5.00;;;;;;;3.95;65.93;101699.19;5031647;28;20150;-24
2022/03/05 10:14:31;;;;;;;6.88;5.07;;;;;;;4.06;65.67;101696.94;5032181;28;20064;-24
2022/03/05 10:17:00;;;;;;;7.70;4.72;;;;;;;4.17;65.41;101699.91;5033746;28;20064;-24
2022/03/05 10:19:26;;;;;;;5.15;4.50;;;;;;;4.26;65.84;101701.06;5048273;28;20119;-23
2022/03/05 10:22:03;;;;;;;5.78;4.95;;;;;;;4.36;65.03;101696.19;5051866;28;20447;-23
2022/03/05 10:24:36;;;;;;;8.38;5.32;;;;;;;4.47;64.91;101691.31;5037411;28;20020;-24
2022/03/05 10:27:02;;;;;;;7.35;5.03;;;;;;;4.56;65.05;101687.22;5060496;28;20017;-23
2022/03/05 10:29:34;;;;;;;7.60;4.88;;;;;;;4.66;65.06;101684.06;5056986;28;20032;-23
2022/03/05 10:32:03;;;;;;;5.28;4.18;;;;;;;4.75;65.09;101684.38;5052181;28;20036;-23
2022/03/05 10:34:50;;;;;;;5.22;4.72;;;;;;;4.87;64.78;101680.38;5051459;28;20082;-24
2022/03/05 10:37:16;;;;;;;7.07;4.63;;;;;;;4.96;65.06;101683.25;5047525;28;20029;-23
2022/03/05 10:39:42;;;;;;;6.25;5.00;;;;;;;5.07;65.06;101682.69;5054414;28;20035;-23
2022/03/05 10:42:20;;;;;;;5.93;4.20;;;;;;;5.16;64.54;101680.34;5046214;28;20480;-22
2022/03/05 10:45:09;;;;;;;6.80;4.60;;;;;;;5.26;64.66;101679.78;5049321;28;20044;-23
2022/03/05 10:47:40;;;;;;;6.82;4.25;;;;;;;5.36;64.56;101675.69;5050501;28;20041;-24
2022/03/05 10:50:14;;;;;;;6.00;4.93;;;;;;;5.47;64.49;101672.50;5050270;28;20487;-23
2022/03/05 10:52:48;;;;;;;5.03;4.53;;;;;;;5.58;63.90;101672.78;5050476;28;20048;-23
2022/03/05 10:55:18;;;;;;;5.78;4.97;;;;;;;5.69;63.89;101670.47;5050821;28;20501;-23
2022/03/05 10:58:00;;;;;;;7.47;5.00;;;;;;;5.81;63.84;101675.16;5054007;28;20498;-24
2022/03/05 11:00:26;;;;;;;5.38;4.57;;;;;;;5.89;64.18;101668.38;5051991;28;20391;-23
2022/03/05 11:02:51;;;;;;;5.00;4.50;;;;;;;5.99;64.14;101659.94;5051549;28;20047;-23
2022/03/05 11:05:19;;;;;;;4.10;3.75;;;;;;;6.09;64.02;101662.81;5050007;28;20103;-24
2022/03/05 11:07:45;;;;;;;5.57;4.75;;;;;;;6.17;63.82;101658.63;5048346;28;20029;-23
2022/03/05 11:10:10;;;;;;;5.45;4.60;;;;;;;6.23;63.79;101658.81;5032441;28;20517;-23
2022/03/05 11:12:38;;;;;;;5.13;4.45;;;;;;;6.34;63.02;101663.44;5029914;28;20020;-23
2022/03/05 11:15:07;;;;;;;4.90;4.40;;;;;;;6.41;62.38;101653.13;5032730;28;20029;-23
2022/03/05 11:17:32;;;;;;;5.30;4.65;;;;;;;6.49;63.15;101653.31;5031481;28;20029;-23
2022/03/05 11:19:57;;;;;;;7.10;4.72;;;;;;;6.58;62.67;101657.00;5028093;28;20027;-23
2022/03/05 11:22:23;;;;;;;8.18;5.07;;;;;;;6.62;62.68;101644.00;5048920;28;20391;-24
2022/03/05 11:24:48;;;;;;;9.77;5.75;;;;;;;6.72;62.73;101649.44;5028463;28;20071;-24